Time;durP1;ratioP1;P1;durP2;ratioP2;P2;SDS_P1;SDS_P2;PMS_P1;PMS_P2;Temp;Humidity;BMP_temperature;BMP_pressure;BME280_temperature;BME280_humidity;BME280_pressure;Samples;Min_cycle;Max_cycle;Signal;HPM_P1;HPM_P2
2022/10/13 00:01:40;;;;;;;41.30;26.50;;;;;;;11.72;100.00;98086.64;108044;1266;59741;-72
2022/10/13 00:04:10;;;;;;;;;;;;;;;11.72;100.00;98086.27;108011;1265;59692;-73
2022/10/13 00:06:39;;;;;;;37.40;24.50;;;;;;;11.72;100.00;98083.07;108033;1263;71367;-73
2022/10/13 00:09:09;;;;;;;35.10;22.70;;;;;;;11.74;100.00;98078.61;108215;1266;68351;-73
2022/10/13 00:11:40;;;;;;;37.90;26.60;;;;;;;11.76;100.00;98079.56;108095;1259;68444;-72
2022/10/13 00:14:09;;;;;;;42.60;29.90;;;;;;;11.76;100.00;98082.88;108138;1265;60067;-73
2022/10/13 00:16:38;;;;;;;40.90;27.70;;;;;;;11.75;100.00;98076.83;108124;1266;60128;-73
2022/10/13 00:19:09;;;;;;;46.70;32.50;;;;;;;11.74;100.00;98074.44;108102;1263;70641;-74
2022/10/13 00:21:42;;;;;;;41.00;28.70;;;;;;;11.75;100.00;98075.46;108165;1264;69046;-74
2022/10/13 00:24:12;;;;;;;40.40;28.70;;;;;;;11.75;100.00;98071.61;108072;1262;69067;-73
2022/10/13 00:26:41;;;;;;;35.60;23.10;;;;;;;11.76;100.00;98071.23;108048;1259;59720;-73
2022/10/13 00:29:13;;;;;;;39.70;28.20;;;;;;;11.76;100.00;98068.38;107936;1266;59693;-74
2022/10/13 00:31:42;;;;;;;36.60;24.10;;;;;;;11.78;100.00;98069.81;108113;1265;71368;-72
2022/10/13 00:34:12;;;;;;;36.10;23.50;;;;;;;11.79;100.00;98067.48;108057;1265;68411;-74
2022/10/13 00:36:41;;;;;;;;;;;;;;;11.79;100.00;98066.44;108155;1266;69977;-74
2022/10/13 00:39:14;;;;;;;37.40;26.30;;;;;;;11.76;100.00;98060.73;108113;1261;59763;-72
2022/10/13 00:41:45;;;;;;;37.90;25.20;;;;;;;11.75;100.00;98059.58;108114;1262;60081;-73
2022/10/13 00:44:58;;;;;;;39.80;24.90;;;;;;;11.73;100.00;98055.77;108067;1263;71689;-73
2022/10/13 00:47:34;;;;;;;36.30;22.80;;;;;;;11.72;100.00;98050.29;107629;1266;69272;-73
2022/10/13 00:50:10;;;;;;;28.20;20.00;;;;;;;11.73;100.00;98044.45;107874;1266;69177;-73
2022/10/13 00:52:42;;;;;;;35.10;23.60;;;;;;;11.72;99.63;98046.11;107967;1265;59717;-73
2022/10/13 00:55:19;;;;;;;26.20;18.70;;;;;;;11.71;100.00;98045.85;108129;1265;59690;-75
2022/10/13 00:57:53;;;;;;;26.60;17.30;;;;;;;11.70;100.00;98052.86;108107;1266;71379;-75
2022/10/13 01:00:32;;;;;;;37.90;24.30;;;;;;;11.71;100.00;98054.92;108141;1266;69079;-73
2022/10/13 01:03:05;;;;;;;35.90;25.10;;;;;;;11.69;100.00;98053.79;108182;1262;69357;-74
2022/10/13 01:05:39;;;;;;;34.30;23.00;;;;;;;11.66;100.00;98050.48;108170;1266;59714;-74
2022/10/13 01:08:11;;;;;;;40.30;25.90;;;;;;;11.65;100.00;98046.92;107977;1262;59710;-74
2022/10/13 01:10:43;;;;;;;35.90;23.90;;;;;;;11.63;100.00;98048.59;108183;1263;71252;-74
2022/10/13 01:13:19;;;;;;;39.80;25.60;;;;;;;11.62;100.00;98046.60;108110;1266;68363;-74
2022/10/13 01:16:21;;;;;;;33.10;22.20;;;;;;;11.61;100.00;98047.21;107968;1264;69218;-74
2022/10/13 01:19:30;;;;;;;35.70;21.90;;;;;;;11.60;100.00;98043.61;107834;1266;59651;-75
2022/10/13 01:22:14;;;;;;;35.00;23.30;;;;;;;11.57;100.00;98043.25;108006;1260;59693;-74
2022/10/13 01:25:26;;;;;;;32.40;22.40;;;;;;;11.54;100.00;98039.29;107867;1263;70733;-73
2022/10/13 01:28:00;;;;;;;37.60;24.00;;;;;;;11.50;100.00;98041.63;107758;1267;69090;-73
2022/10/13 01:30:36;;;;;;;33.60;21.50;;;;;;;11.47;100.00;98040.09;107887;1263;69246;-73
2022/10/13 01:33:31;;;;;;;34.10;22.40;;;;;;;11.47;100.00;98041.86;107995;1266;59737;-73
2022/10/13 01:36:20;;;;;;;32.10;20.10;;;;;;;11.46;100.00;98039.47;108176;1266;59709;-73
2022/10/13 01:39:04;;;;;;;32.30;22.50;;;;;;;11.45;100.00;98037.75;108037;1266;71409;-73
2022/10/13 01:41:42;;;;;;;38.30;23.50;;;;;;;11.45;100.00;98033.43;108126;1266;69169;-73
2022/10/13 01:44:36;;;;;;;33.10;20.40;;;;;;;11.44;100.00;98034.90;108044;1266;69100;-72
2022/10/13 01:47:11;;;;;;;30.20;19.80;;;;;;;11.43;100.00;98037.38;108172;1266;59755;-74
2022/10/13 01:49:44;;;;;;;24.70;17.60;;;;;;;11.43;100.00;98034.61;108127;1263;59675;-74
2022/10/13 01:52:18;;;;;;;29.70;20.30;;;;;;;11.43;100.00;98033.75;108144;1260;70619;-74
2022/10/13 01:54:53;;;;;;;30.60;19.90;;;;;;;11.42;100.00;98031.52;108173;1262;68667;-73
2022/10/13 01:57:33;;;;;;;30.90;19.50;;;;;;;11.40;100.00;98028.88;108041;1266;69245;-74
2022/10/13 02:00:12;;;;;;;23.00;15.70;;;;;;;11.39;100.00;98027.90;108113;1262;59667;-73
2022/10/13 02:02:53;;;;;;;25.40;17.10;;;;;;;11.39;100.00;98031.59;107950;1260;59707;-74
2022/10/13 02:05:31;;;;;;;34.90;22.60;;;;;;;11.38;100.00;98031.83;108220;1266;71406;-72
2022/10/13 02:08:09;;;;;;;33.30;21.40;;;;;;;11.37;100.00;98032.73;107957;1262;68976;-74
2022/10/13 02:10:45;;;;;;;27.80;18.60;;;;;;;11.37;100.00;98035.55;107854;1266;69458;-74
2022/10/13 02:13:21;;;;;;;32.00;21.00;;;;;;;11.35;100.00;98032.16;108176;1260;59692;-72
2022/10/13 02:16:00;;;;;;;30.90;19.20;;;;;;;11.34;100.00;98030.86;107896;1263;59735;-74
2022/10/13 02:18:34;;;;;;;29.90;20.10;;;;;;;11.32;100.00;98031.02;108071;1265;71400;-73
2022/10/13 02:21:06;;;;;;;33.90;22.30;;;;;;;11.30;100.00;98033.57;108185;1266;68300;-75
2022/10/13 02:23:37;;;;;;;35.40;23.80;;;;;;;11.27;100.00;98034.80;108058;1262;68788;-75
2022/10/13 02:26:09;;;;;;;32.50;20.90;;;;;;;11.24;100.00;98041.27;108105;1266;59727;-73
2022/10/13 02:28:40;;;;;;;31.10;20.10;;;;;;;11.22;100.00;98041.55;107899;1266;59728;-75
2022/10/13 02:31:11;;;;;;;35.30;22.40;;;;;;;11.21;100.00;98041.65;108023;1261;71376;-72
2022/10/13 02:33:40;;;;;;;30.70;20.80;;;;;;;11.19;100.00;98043.17;108021;1257;69289;-74
2022/10/13 02:36:11;;;;;;;30.80;20.20;;;;;;;11.19;100.00;98042.30;107739;1266;69070;-72
2022/10/13 02:38:41;;;;;;;35.40;22.50;;;;;;;11.19;100.00;98042.79;107860;1263;59714;-74
2022/10/13 02:41:11;;;;;;;35.10;21.00;;;;;;;11.20;100.00;98039.29;108065;1262;59733;-74
2022/10/13 02:43:41;;;;;;;36.10;22.50;;;;;;;11.21;100.00;98038.99;108096;1263;71195;-75
2022/10/13 02:46:11;;;;;;;32.70;19.90;;;;;;;11.23;100.00;98037.66;107849;1265;69448;-72
2022/10/13 02:48:41;;;;;;;37.20;24.70;;;;;;;11.26;100.00;98036.97;107910;1261;69893;-73
2022/10/13 02:51:10;;;;;;;38.20;24.70;;;;;;;11.27;100.00;98033.23;107981;1262;59701;-74
2022/10/13 02:53:40;;;;;;;33.20;22.00;;;;;;;11.27;100.00;98034.95;108095;1262;59671;-73
2022/10/13 02:56:12;;;;;;;35.10;21.80;;;;;;;11.28;100.00;98035.27;108152;1262;70436;-73
2022/10/13 02:58:41;;;;;;;28.20;19.10;;;;;;;11.29;100.00;98034.12;108025;1265;68539;-73
2022/10/13 03:01:14;;;;;;;31.70;19.80;;;;;;;11.33;100.00;98035.46;107916;1263;69227;-74
2022/10/13 03:03:44;;;;;;;35.40;23.50;;;;;;;11.35;100.00;98033.94;108100;1262;59773;-73
2022/10/13 03:06:14;;;;;;;29.70;19.30;;;;;;;11.37;100.00;98034.14;108018;1266;59676;-74
2022/10/13 03:08:44;;;;;;;32.60;21.90;;;;;;;11.38;100.00;98031.96;107927;1265;71497;-74
2022/10/13 03:11:14;;;;;;;33.20;21.70;;;;;;;11.39;100.00;98038.70;107872;1262;69173;-73
2022/10/13 03:13:43;;;;;;;31.80;20.10;;;;;;;11.39;100.00;98035.19;107796;1266;68428;-74
2022/10/13 03:16:12;;;;;;;31.00;21.90;;;;;;;11.40;100.00;98034.80;107828;1262;59809;-74
2022/10/13 03:18:41;;;;;;;26.70;18.00;;;;;;;11.39;100.00;98039.56;108127;1264;59683;-74
2022/10/13 03:21:10;;;;;;;32.20;21.10;;;;;;;11.38;100.00;98033.89;108144;1262;71215;-74
2022/10/13 03:23:39;;;;;;;29.10;18.00;;;;;;;11.37;100.00;98034.83;108154;1266;68984;-74
2022/10/13 03:26:09;;;;;;;27.00;20.50;;;;;;;11.37;100.00;98033.64;108168;1266;69208;-72
2022/10/13 03:28:38;;;;;;;27.00;18.80;;;;;;;11.36;100.00;98036.98;108127;1263;59693;-74
2022/10/13 03:31:10;;;;;;;30.00;19.80;;;;;;;11.36;100.00;98041.20;108074;1265;59749;-74
2022/10/13 03:33:39;;;;;;;29.40;18.60;;;;;;;11.34;100.00;98039.72;108114;1262;71636;-74
2022/10/13 03:36:12;;;;;;;29.30;18.40;;;;;;;11.34;100.00;98039.20;108156;1266;68373;-74
2022/10/13 03:38:43;;;;;;;29.20;17.80;;;;;;;11.35;100.00;98040.39;108077;1267;69087;-75
2022/10/13 03:41:15;;;;;;;27.20;18.50;;;;;;;11.35;100.00;98037.60;108212;1266;59729;-74
2022/10/13 03:43:45;;;;;;;29.90;20.20;;;;;;;11.35;100.00;98037.92;108034;1266;59679;-74
2022/10/13 03:46:16;;;;;;;28.30;18.10;;;;;;;11.36;100.00;98037.88;108054;1266;71359;-73
2022/10/13 03:48:47;;;;;;;24.00;16.50;;;;;;;11.37;100.00;98039.88;108116;1262;69135;-75
2022/10/13 03:51:18;;;;;;;27.80;19.20;;;;;;;11.36;100.00;98034.55;108176;1262;70345;-75
2022/10/13 03:53:51;;;;;;;30.30;21.00;;;;;;;11.36;100.00;98038.26;108136;1265;59707;-75
2022/10/13 03:56:25;;;;;;;30.70;20.80;;;;;;;11.34;100.00;98035.45;108201;1266;59743;-74
2022/10/13 03:58:57;;;;;;;25.20;18.80;;;;;;;11.32;100.00;98034.80;108171;1266;71204;-74
2022/10/13 04:01:29;;;;;;;28.90;20.50;;;;;;;11.31;100.00;98025.27;108241;1262;69201;-74
2022/10/13 04:04:02;;;;;;;25.90;18.80;;;;;;;11.30;100.00;98020.13;108086;1265;68414;-74
2022/10/13 04:06:32;;;;;;;30.40;22.10;;;;;;;11.28;100.00;98019.19;107973;1256;59724;-74
2022/10/13 04:09:01;;;;;;;23.70;17.30;;;;;;;11.26;100.00;98022.34;108159;1262;59623;-74
2022/10/13 04:11:30;;;;;;;26.80;17.70;;;;;;;11.25;100.00;98021.55;108058;1266;69698;-74
2022/10/13 04:13:58;;;;;;;22.20;14.30;;;;;;;11.23;100.00;98024.04;108089;1265;68415;-73
2022/10/13 04:16:29;;;;;;;22.10;15.90;;;;;;;11.22;100.00;98026.38;108177;1261;69132;-74
2022/10/13 04:19:04;;;;;;;31.20;20.10;;;;;;;11.20;100.00;98027.23;108016;1261;59742;-74
2022/10/13 04:21:34;;;;;;;28.40;21.20;;;;;;;11.17;100.00;98026.52;108129;1266;59671;-74
2022/10/13 04:24:04;;;;;;;26.30;18.90;;;;;;;11.15;100.00;98028.98;108177;1260;71429;-74
2022/10/13 04:26:35;;;;;;;32.10;21.80;;;;;;;11.12;100.00;98034.70;108111;1266;67278;-74
2022/10/13 04:29:11;;;;;;;27.40;18.90;;;;;;;11.09;100.00;98035.42;107998;1261;69337;-74
2022/10/13 04:31:42;;;;;;;25.80;17.10;;;;;;;11.08;100.00;98032.33;108012;1261;59778;-74
2022/10/13 04:34:11;;;;;;;24.60;17.20;;;;;;;11.08;100.00;98034.96;108194;1266;59662;-73
2022/10/13 04:36:40;;;;;;;25.50;16.70;;;;;;;11.09;100.00;98033.89;108184;1262;69717;-74
2022/10/13 04:39:09;;;;;;;28.90;19.10;;;;;;;11.09;100.00;98033.55;108137;1266;68379;-74
2022/10/13 04:41:38;;;;;;;28.60;20.40;;;;;;;11.08;100.00;98033.04;107967;1262;69936;-72
2022/10/13 04:44:07;;;;;;;25.90;17.30;;;;;;;11.08;100.00;98036.91;107982;1266;59733;-75
2022/10/13 04:46:36;;;;;;;20.90;14.50;;;;;;;11.08;100.00;98036.91;107965;1266;59730;-75
2022/10/13 04:49:05;;;;;;;29.60;20.10;;;;;;;11.09;100.00;98039.96;108182;1261;71206;-75
2022/10/13 04:51:35;;;;;;;23.40;16.50;;;;;;;11.10;100.00;98043.58;108099;1264;69900;-76
2022/10/13 04:54:04;;;;;;;29.60;19.40;;;;;;;11.12;100.00;98045.16;107971;1266;69569;-73
2022/10/13 04:56:33;;;;;;;35.40;20.30;;;;;;;11.13;100.00;98046.13;108166;1259;59799;-73
2022/10/13 04:59:04;;;;;;;27.30;19.60;;;;;;;11.12;100.00;98046.37;108118;1265;59692;-75
2022/10/13 05:01:34;;;;;;;23.60;17.10;;;;;;;11.12;100.00;98046.36;107923;1260;71208;-73
2022/10/13 05:04:07;;;;;;;32.00;20.60;;;;;;;11.13;100.00;98046.36;107971;1258;68763;-73
2022/10/13 05:06:41;;;;;;;26.30;18.00;;;;;;;11.11;100.00;98050.14;108139;1266;68309;-73
2022/10/13 05:09:31;;;;;;;24.60;15.70;;;;;;;11.09;100.00;98051.34;108036;1264;59755;-74
2022/10/13 05:12:01;;;;;;;22.40;15.80;;;;;;;11.08;100.00;98049.43;108045;1262;59720;-74
2022/10/13 05:14:31;;;;;;;28.40;18.50;;;;;;;11.11;100.00;98057.83;108263;1261;71662;-73
2022/10/13 05:17:02;;;;;;;21.80;15.90;;;;;;;11.13;100.00;98056.15;108128;1263;69711;-73
2022/10/13 05:19:51;;;;;;;25.70;18.40;;;;;;;11.15;100.00;98058.09;108144;1266;69172;-74
2022/10/13 05:22:27;;;;;;;29.20;17.90;;;;;;;11.16;100.00;98056.77;108349;1260;59716;-74
2022/10/13 05:24:56;;;;;;;21.30;15.70;;;;;;;11.18;100.00;98055.27;108253;1262;60092;-74
2022/10/13 05:27:26;;;;;;;24.10;17.30;;;;;;;11.19;100.00;98054.65;108136;1265;71404;-74
2022/10/13 05:29:56;;;;;;;24.30;17.10;;;;;;;11.22;100.00;98059.54;108125;1262;69014;-74
2022/10/13 05:32:25;;;;;;;24.00;17.40;;;;;;;11.25;100.00;98060.45;107936;1260;68641;-73
2022/10/13 05:34:56;;;;;;;23.20;16.20;;;;;;;11.26;100.00;98068.69;107680;1261;551600;-74
2022/10/13 05:37:28;;;;;;;21.10;14.50;;;;;;;11.27;100.00;98069.55;108128;1263;59713;-73
2022/10/13 05:39:58;;;;;;;29.90;20.40;;;;;;;11.26;100.00;98071.70;108105;1266;70596;-73
2022/10/13 05:42:28;;;;;;;29.10;20.70;;;;;;;11.22;100.00;98072.77;108079;1263;69234;-74
2022/10/13 05:44:57;;;;;;;34.00;24.20;;;;;;;11.21;100.00;98077.21;108054;1258;68508;-74
2022/10/13 05:47:27;;;;;;;30.70;22.20;;;;;;;11.16;100.00;98080.83;108019;1265;59770;-73
2022/10/13 05:49:56;;;;;;;28.50;19.80;;;;;;;11.14;100.00;98083.29;108018;1256;59688;-73
2022/10/13 05:52:26;;;;;;;26.40;18.40;;;;;;;11.14;100.00;98084.16;107957;1259;71432;-74
2022/10/13 05:55:01;;;;;;;25.30;17.90;;;;;;;11.14;100.00;98086.73;107835;1261;69198;-74
2022/10/13 05:57:37;;;;;;;26.50;18.70;;;;;;;11.15;100.00;98090.71;107977;1262;69304;-74
2022/10/13 06:00:13;;;;;;;25.20;16.50;;;;;;;11.16;100.00;98092.36;108103;1262;59714;-73
2022/10/13 06:02:53;;;;;;;25.80;18.20;;;;;;;11.17;100.00;98097.53;108177;1266;59697;-74
2022/10/13 06:05:25;;;;;;;30.80;22.50;;;;;;;11.18;100.00;98099.05;108023;1262;72070;-75
2022/10/13 06:07:57;;;;;;;32.70;24.20;;;;;;;11.17;100.00;98096.30;108191;1257;67480;-74
2022/10/13 06:10:27;;;;;;;28.30;20.20;;;;;;;11.16;100.00;98096.40;108188;1262;70058;-74
2022/10/13 06:12:56;;;;;;;28.00;19.20;;;;;;;11.16;100.00;98096.90;107923;1260;59774;-74
2022/10/13 06:15:25;;;;;;;27.00;19.30;;;;;;;11.17;100.00;98096.83;108201;1256;59760;-73
2022/10/13 06:17:56;;;;;;;28.90;18.30;;;;;;;11.20;100.00;98097.32;108330;1256;71377;-74
2022/10/13 06:20:26;;;;;;;28.40;20.30;;;;;;;11.25;100.00;98100.39;108182;1259;69864;-78
2022/10/13 06:22:55;;;;;;;29.60;20.60;;;;;;;11.28;100.00;98099.31;108189;1262;69918;-76
2022/10/13 06:25:24;;;;;;;29.00;20.50;;;;;;;11.31;100.00;98102.59;108155;1262;59750;-74
2022/10/13 06:27:56;;;;;;;26.90;18.20;;;;;;;11.32;100.00;98103.20;108215;1256;59761;-78
2022/10/13 06:30:31;;;;;;;25.30;17.50;;;;;;;11.34;100.00;98105.50;108107;1261;71908;-77
2022/10/13 06:33:10;;;;;;;;;;;;;;;11.37;100.00;98107.24;108109;1265;69087;-79
2022/10/13 06:35:45;;;;;;;21.70;16.00;;;;;;;11.37;100.00;98103.39;108087;1266;69561;-77
2022/10/13 06:38:14;;;;;;;21.90;16.00;;;;;;;11.38;100.00;98106.67;108279;1262;59739;-77
2022/10/13 06:40:43;;;;;;;22.70;17.00;;;;;;;11.38;100.00;98106.52;108221;1262;59795;-78
2022/10/13 06:43:11;;;;;;;24.60;18.70;;;;;;;11.37;100.00;98104.45;108213;1263;71400;-77
2022/10/13 06:45:43;;;;;;;23.40;16.00;;;;;;;11.37;100.00;98102.88;108161;1266;69078;-76
2022/10/13 06:48:11;;;;;;;23.30;16.20;;;;;;;11.37;99.85;98103.05;108206;1262;69306;-77
2022/10/13 06:50:40;;;;;;;26.10;19.40;;;;;;;11.37;99.66;98100.98;108256;1266;59764;-78
2022/10/13 06:53:10;;;;;;;30.30;22.20;;;;;;;11.38;99.37;98103.73;108088;1256;59777;-77
2022/10/13 06:55:38;;;;;;;30.50;20.60;;;;;;;11.38;99.95;98102.48;108174;1262;71921;-77
2022/10/13 06:58:07;;;;;;;29.20;22.00;;;;;;;11.39;100.00;98102.89;108205;1256;68168;-77
2022/10/13 07:00:37;;;;;;;31.60;24.60;;;;;;;11.42;100.00;98101.53;108044;1264;69249;-78
2022/10/13 07:03:05;;;;;;;;;;;;;;;11.44;100.00;98101.23;108223;1260;59737;-77
2022/10/13 07:05:35;;;;;;;31.30;20.40;;;;;;;11.42;100.00;98098.73;108173;1259;59734;-76
2022/10/13 07:08:08;;;;;;;28.20;19.00;;;;;;;11.44;100.00;98098.73;108108;1262;71398;-80
2022/10/13 07:10:39;;;;;;;24.40;17.10;;;;;;;11.48;100.00;98094.49;108311;1261;68454;-78
2022/10/13 07:13:08;;;;;;;24.50;16.80;;;;;;;11.53;100.00;98095.39;108462;1256;69273;-77
2022/10/13 07:15:39;;;;;;;24.20;17.60;;;;;;;11.58;100.00;98094.17;108145;1266;59683;-75
2022/10/13 07:18:08;;;;;;;22.80;16.00;;;;;;;11.62;100.00;98091.44;108126;1266;59740;-76
2022/10/13 07:20:39;;;;;;;26.70;18.70;;;;;;;11.68;100.00;98090.71;108056;1266;71616;-78
2022/10/13 07:23:08;;;;;;;22.50;16.40;;;;;;;11.74;100.00;98088.73;108100;1263;70303;-77
2022/10/13 07:25:36;;;;;;;22.10;16.60;;;;;;;11.81;100.00;98086.02;108179;1264;70007;-76
2022/10/13 07:28:05;;;;;;;24.90;18.30;;;;;;;11.86;100.00;98083.63;108327;1261;59719;-76
2022/10/13 07:30:33;;;;;;;23.50;17.70;;;;;;;11.91;100.00;98082.61;108208;1262;59768;-77
2022/10/13 07:33:03;;;;;;;19.40;14.20;;;;;;;11.96;100.00;98084.86;108126;1266;71322;-76
2022/10/13 07:35:44;;;;;;;20.40;16.00;;;;;;;11.98;100.00;98084.22;108123;1256;69793;-77
2022/10/13 07:38:23;;;;;;;20.40;14.20;;;;;;;12.01;100.00;98083.85;108134;1266;69948;-77
2022/10/13 07:41:01;;;;;;;21.00;14.90;;;;;;;12.04;99.79;98083.63;108017;1262;59744;-75
2022/10/13 07:43:30;;;;;;;18.90;14.20;;;;;;;12.03;99.63;98084.07;108317;1260;59773;-76
2022/10/13 07:46:03;;;;;;;20.00;15.20;;;;;;;12.03;99.73;98080.19;108238;1255;71926;-76
2022/10/13 07:48:37;;;;;;;21.00;16.20;;;;;;;12.04;100.00;98084.48;108223;1260;69703;-77
2022/10/13 07:51:12;;;;;;;19.30;14.10;;;;;;;12.04;99.20;98079.73;108092;1264;69268;-77
2022/10/13 07:53:47;;;;;;;19.60;14.90;;;;;;;12.04;99.11;98077.86;108198;1262;59639;-76
2022/10/13 07:56:16;;;;;;;20.90;15.30;;;;;;;12.04;99.73;98076.48;108279;1264;59694;-76
2022/10/13 07:58:46;;;;;;;24.70;16.40;;;;;;;12.04;99.91;98080.80;108234;1266;70524;-77
2022/10/13 08:01:15;;;;;;;16.30;13.10;;;;;;;12.06;99.63;98078.96;108051;1266;69010;-77
2022/10/13 08:03:44;;;;;;;20.10;15.40;;;;;;;12.07;99.22;98078.86;108252;1261;69196;-76
2022/10/13 08:06:21;;;;;;;18.40;14.00;;;;;;;12.03;99.20;98083.17;108081;1266;59753;-78
2022/10/13 08:08:54;;;;;;;20.00;13.50;;;;;;;12.02;98.61;98081.52;108241;1261;59729;-77
2022/10/13 08:11:23;;;;;;;20.90;14.40;;;;;;;12.00;98.69;98081.29;108241;1262;71525;-77
2022/10/13 08:13:52;;;;;;;18.20;14.00;;;;;;;11.96;98.92;98083.61;108163;1266;69005;-77
2022/10/13 08:16:21;;;;;;;19.00;14.00;;;;;;;11.93;98.99;98084.69;108236;1262;68504;-78
2022/10/13 08:18:50;;;;;;;20.30;14.10;;;;;;;11.92;98.79;98085.33;108132;1262;59693;-77
2022/10/13 08:21:21;;;;;;;16.60;12.70;;;;;;;11.89;98.38;98081.83;108114;1265;59695;-77
2022/10/13 08:24:12;;;;;;;19.70;14.30;;;;;;;11.88;98.39;98082.83;108204;1259;71148;-77
2022/10/13 08:26:45;;;;;;;22.10;15.40;;;;;;;11.83;98.01;98082.06;108134;1257;69127;-77
2022/10/13 08:29:14;;;;;;;20.40;14.50;;;;;;;11.79;98.04;98083.54;108228;1262;69109;-77
2022/10/13 08:31:52;;;;;;;21.30;14.70;;;;;;;11.73;98.59;98079.03;108255;1262;59769;-77
2022/10/13 08:34:22;;;;;;;18.50;14.60;;;;;;;11.72;98.41;98081.55;108095;1262;59714;-78
2022/10/13 08:36:54;;;;;;;17.20;12.60;;;;;;;11.71;98.31;98081.80;108263;1259;71393;-78
2022/10/13 08:39:24;;;;;;;20.00;15.10;;;;;;;11.69;98.57;98075.99;108179;1266;69242;-78
2022/10/13 08:41:56;;;;;;;18.10;14.00;;;;;;;11.68;98.30;98076.70;108304;1264;69852;-78
2022/10/13 08:44:37;;;;;;;20.20;14.30;;;;;;;11.69;98.16;98077.93;108262;1262;59726;-78
2022/10/13 08:47:26;;;;;;;20.90;14.40;;;;;;;11.66;98.44;98077.11;108038;1263;59700;-77
2022/10/13 08:50:01;;;;;;;21.00;14.80;;;;;;;11.65;99.09;98079.92;108236;1260;72076;-77
2022/10/13 08:52:56;;;;;;;20.10;13.90;;;;;;;11.64;99.33;98077.36;108081;1262;69054;-78
2022/10/13 08:55:48;;;;;;;16.50;12.00;;;;;;;11.62;99.17;98084.33;108273;1263;69754;-76
2022/10/13 08:58:34;;;;;;;14.70;11.80;;;;;;;11.60;98.84;98087.56;108276;1262;59756;-78
2022/10/13 09:01:26;;;;;;;18.30;12.40;;;;;;;11.58;98.70;98091.39;108275;1259;59702;-78
2022/10/13 09:04:18;;;;;;;17.10;12.60;;;;;;;11.54;98.91;98091.50;108379;1265;71184;-78
2022/10/13 09:06:54;;;;;;;16.50;12.40;;;;;;;11.48;99.70;98092.55;108256;1266;69482;-78
2022/10/13 09:09:23;;;;;;;14.80;11.30;;;;;;;11.45;99.36;98095.17;107986;1260;69752;-78
2022/10/13 09:11:51;;;;;;;14.00;11.00;;;;;;;11.43;98.98;98096.17;108118;1266;59753;-78
2022/10/13 09:14:33;;;;;;;14.60;11.90;;;;;;;11.42;99.18;98098.20;108363;1262;59807;-78
2022/10/13 09:17:15;;;;;;;14.60;11.10;;;;;;;11.42;98.60;98096.29;108337;1262;71018;-77
2022/10/13 09:20:19;;;;;;;13.50;10.00;;;;;;;11.41;98.81;98097.70;108145;1258;69934;-78
2022/10/13 09:23:14;;;;;;;13.60;9.50;;;;;;;11.42;98.88;98098.36;108028;1266;69271;-76
2022/10/13 09:25:49;;;;;;;12.80;9.60;;;;;;;11.39;99.31;98100.98;108170;1261;59833;-77
2022/10/13 09:28:28;;;;;;;11.60;9.20;;;;;;;11.36;99.28;98104.86;108076;1266;59707;-77
2022/10/13 09:31:01;;;;;;;11.50;8.30;;;;;;;11.32;99.22;98105.86;108361;1260;71187;-76
2022/10/13 09:33:36;;;;;;;11.00;8.60;;;;;;;11.31;99.68;98108.48;108438;1252;69712;-76
2022/10/13 09:36:14;;;;;;;11.10;8.70;;;;;;;11.33;100.00;98106.66;108165;1259;68440;-77
2022/10/13 09:39:12;;;;;;;12.90;9.10;;;;;;;11.35;100.00;98104.77;108115;1266;59780;-77
2022/10/13 09:41:42;;;;;;;11.20;9.00;;;;;;;11.39;100.00;98105.05;108250;1266;59668;-73
2022/10/13 09:44:30;;;;;;;14.70;10.90;;;;;;;11.40;100.00;98104.23;108057;1262;72095;-74
2022/10/13 09:47:01;;;;;;;11.90;9.20;;;;;;;11.43;100.00;98104.42;108139;1262;69195;-74
2022/10/13 09:49:36;;;;;;;11.30;9.20;;;;;;;11.44;100.00;98101.39;108052;1260;68561;-74
2022/10/13 09:52:11;;;;;;;11.50;7.60;;;;;;;11.46;100.00;98101.44;108137;1262;60000;-73
2022/10/13 09:54:52;;;;;;;11.20;8.40;;;;;;;11.48;99.97;98096.77;108238;1256;59714;-74
2022/10/13 09:57:44;;;;;;;10.30;7.50;;;;;;;11.47;99.82;98094.73;108133;1266;72086;-74
2022/10/13 10:00:20;;;;;;;11.50;8.90;;;;;;;11.47;99.11;98090.34;108146;1260;69063;-74
2022/10/13 10:03:19;;;;;;;12.80;10.00;;;;;;;11.45;98.80;98090.31;108006;1262;69253;-75
2022/10/13 10:06:18;;;;;;;11.00;8.70;;;;;;;11.42;98.65;98090.48;108089;1261;59697;-75
2022/10/13 10:09:21;;;;;;;13.40;10.30;;;;;;;11.43;98.37;98089.98;108038;1266;59700;-74
2022/10/13 10:11:53;;;;;;;11.80;8.70;;;;;;;11.44;99.28;98087.58;108115;1264;71807;-74
2022/10/13 10:14:29;;;;;;;14.40;11.20;;;;;;;11.50;99.14;98085.30;108060;1262;70263;-74
2022/10/13 10:17:20;;;;;;;11.30;9.00;;;;;;;11.56;100.00;98080.20;108096;1262;68522;-74
2022/10/13 10:20:05;;;;;;;13.90;10.20;;;;;;;11.61;100.00;98074.95;108006;1266;59681;-74
2022/10/13 10:23:09;;;;;;;11.40;8.30;;;;;;;11.68;100.00;98076.07;108127;1264;59645;-75
2022/10/13 10:26:01;;;;;;;11.30;7.50;;;;;;;11.75;99.78;98074.17;108121;1262;71961;-74
2022/10/13 10:28:48;;;;;;;10.50;8.10;;;;;;;11.81;98.43;98071.75;108062;1266;69295;-74
2022/10/13 10:31:26;;;;;;;12.00;9.40;;;;;;;11.79;97.99;98071.14;108038;1264;69230;-75
2022/10/13 10:34:10;;;;;;;12.10;9.10;;;;;;;11.77;97.91;98067.28;108177;1262;59680;-74
2022/10/13 10:36:51;;;;;;;12.20;9.60;;;;;;;11.75;97.46;98063.54;108057;1266;59742;-74
2022/10/13 10:39:26;;;;;;;12.20;9.30;;;;;;;11.73;98.07;98062.60;108026;1266;70966;-75
2022/10/13 10:42:25;;;;;;;9.80;7.90;;;;;;;11.76;97.32;98060.04;108146;1264;69169;-74
2022/10/13 10:44:56;;;;;;;9.60;8.30;;;;;;;11.76;97.67;98056.68;108042;1262;69633;-74
2022/10/13 10:47:33;;;;;;;11.80;8.70;;;;;;;11.78;97.94;98059.14;108040;1262;59716;-74
2022/10/13 10:50:06;;;;;;;12.20;9.20;;;;;;;11.82;99.09;98059.61;107790;1263;59649;-74
2022/10/13 10:53:02;;;;;;;9.70;7.20;;;;;;;11.85;98.21;98059.95;108020;1262;71417;-74
2022/10/13 10:55:52;;;;;;;12.50;10.00;;;;;;;11.88;97.63;98055.58;107963;1265;69246;-75
2022/10/13 10:58:32;;;;;;;10.80;7.90;;;;;;;11.89;99.12;98053.23;108083;1266;69316;-73
2022/10/13 11:01:09;;;;;;;11.60;8.80;;;;;;;11.90;98.55;98049.83;107999;1266;59716;-74
2022/10/13 11:04:01;;;;;;;10.20;8.50;;;;;;;11.92;98.56;98044.80;108050;1262;59769;-75
2022/10/13 11:06:36;;;;;;;12.50;8.50;;;;;;;11.94;97.74;98044.97;108030;1266;70597;-75
2022/10/13 11:09:09;;;;;;;9.50;7.90;;;;;;;11.96;97.20;98038.95;108071;1266;69090;-75
2022/10/13 11:11:42;;;;;;;11.00;9.60;;;;;;;11.97;97.56;98038.85;108036;1265;68485;-75
2022/10/13 11:14:27;;;;;;;11.10;8.40;;;;;;;11.99;98.66;98034.01;108000;1265;59765;-75
2022/10/13 11:17:15;;;;;;;11.70;9.10;;;;;;;12.01;98.51;98032.29;108138;1263;59820;-76
2022/10/13 11:19:46;;;;;;;10.00;7.90;;;;;;;12.05;99.13;98028.67;108215;1257;71899;-74
2022/10/13 11:22:17;;;;;;;11.90;9.40;;;;;;;12.10;97.53;98024.85;108006;1265;69928;-75
2022/10/13 11:24:52;;;;;;;12.60;9.70;;;;;;;12.13;96.97;98020.62;107992;1265;68484;-75
2022/10/13 11:27:39;;;;;;;13.80;10.20;;;;;;;12.13;96.88;98012.59;107851;1266;60099;-75
2022/10/13 11:30:57;;;;;;;14.90;10.50;;;;;;;12.13;97.36;98013.79;108147;1264;59690;-75
2022/10/13 11:33:38;;;;;;;13.50;10.10;;;;;;;12.08;97.71;98013.10;107835;1266;70722;-75
2022/10/13 11:36:43;;;;;;;13.80;9.60;;;;;;;12.07;98.15;98007.75;107821;1266;68978;-76
2022/10/13 11:39:26;;;;;;;11.50;8.80;;;;;;;12.05;98.01;98009.13;108069;1264;68528;-76
2022/10/13 11:42:01;;;;;;;11.70;9.60;;;;;;;12.03;98.64;98003.88;108154;1260;59754;-75
2022/10/13 11:44:44;;;;;;;12.30;9.30;;;;;;;12.06;98.96;97999.80;108160;1266;59778;-75